createdAt,value
2022-12-04T00:02:33.153Z,36.63
2022-12-04T00:05:35.176Z,36.75
2022-12-04T00:08:37.192Z,36.92
2022-12-04T00:11:39.028Z,36.20
2022-12-04T00:15:00.836Z,36.15
2022-12-04T00:18:02.142Z,35.67
2022-12-04T00:21:08.417Z,37.13
2022-12-04T00:24:10.010Z,34.70
2022-12-04T00:27:11.572Z,35.53
2022-12-04T00:30:13.563Z,35.88
2022-12-04T00:33:15.083Z,35.70
2022-12-04T00:36:19.271Z,36.20
2022-12-04T00:39:20.835Z,35.83
2022-12-04T00:42:22.454Z,37.97
2022-12-04T00:45:24.073Z,36.58
2022-12-04T00:48:26.029Z,34.38
2022-12-04T00:51:28.141Z,36.88
2022-12-04T00:54:31.176Z,36.53
2022-12-04T00:57:32.720Z,37.42
2022-12-04T01:00:39.923Z,33.78
2022-12-04T01:03:42.568Z,35.80
2022-12-04T01:06:44.117Z,36.75
2022-12-04T01:09:45.650Z,37.45
2022-12-04T01:12:50.311Z,36.38
2022-12-04T01:15:52.467Z,35.60
2022-12-04T01:18:54.010Z,35.72
2022-12-04T01:21:55.556Z,38.30
2022-12-04T01:24:57.616Z,35.70
2022-12-04T01:27:59.376Z,35.75
2022-12-04T01:31:07.525Z,35.42
2022-12-04T01:34:09.096Z,34.67
2022-12-04T01:37:10.619Z,36.50
2022-12-04T01:40:16.388Z,35.35
2022-12-04T01:43:18.887Z,35.20
2022-12-04T01:46:20.707Z,33.80
2022-12-04T01:49:39.773Z,34.95
2022-12-04T01:52:41.623Z,33.25
2022-12-04T01:55:43.922Z,35.40
2022-12-04T01:58:51.025Z,35.67
2022-12-04T02:02:00.514Z,33.85
2022-12-04T02:05:08.873Z,34.03
2022-12-04T02:08:11.028Z,34.85
2022-12-04T02:11:35.633Z,33.97
2022-12-04T02:14:59.354Z,31.65
2022-12-04T02:18:10.869Z,32.63
2022-12-04T02:21:34.057Z,31.75
2022-12-04T02:24:52.733Z,32.63
2022-12-04T02:28:22.941Z,33.90
2022-12-04T02:32:14.823Z,33.75
2022-12-04T02:35:25.276Z,33.65
2022-12-04T02:38:37.407Z,34.67
2022-12-04T02:41:55.459Z,33.13
2022-12-04T02:45:03.493Z,31.92
2022-12-04T02:48:07.912Z,32.92
2022-12-04T02:51:13.219Z,36.55
2022-12-04T02:54:20.794Z,33.03
2022-12-04T02:57:27.885Z,32.67
2022-12-04T03:00:31.631Z,32.10
2022-12-04T03:03:34.731Z,32.75
2022-12-04T03:06:40.563Z,32.92
2022-12-04T03:09:47.608Z,33.30
2022-12-04T03:12:54.561Z,32.38
2022-12-04T03:16:18.200Z,32.00
2022-12-04T03:19:27.390Z,32.70
2022-12-04T03:22:31.432Z,31.73
2022-12-04T03:25:37.135Z,30.65
2022-12-04T03:29:04.581Z,31.85
2022-12-04T03:32:38.889Z,32.63
2022-12-04T03:35:53.925Z,32.63
2022-12-04T03:39:07.451Z,31.20
2022-12-04T03:42:17.651Z,32.05
2022-12-04T03:45:44.984Z,30.25
2022-12-04T03:48:59.760Z,29.70
2022-12-04T03:52:13.618Z,28.17
2022-12-04T03:55:43.573Z,27.27
2022-12-04T03:58:49.663Z,30.03
2022-12-04T04:01:54.218Z,30.08
2022-12-04T04:04:58.696Z,30.33
2022-12-04T04:08:24.934Z,27.95
2022-12-04T04:11:43.349Z,28.92
2022-12-04T04:15:27.647Z,25.60
2022-12-04T04:18:50.400Z,28.63
2022-12-04T04:22:12.263Z,27.42
2022-12-04T04:25:20.307Z,26.20
2022-12-04T04:28:33.801Z,27.77
2022-12-04T04:31:53.171Z,26.08
2022-12-04T04:35:15.096Z,26.15
2022-12-04T04:38:43.182Z,26.48
2022-12-04T04:42:14.325Z,25.58
2022-12-04T04:45:37.266Z,24.13
2022-12-04T04:48:47.426Z,25.15
2022-12-04T04:51:49.298Z,23.90
2022-12-04T04:54:50.852Z,24.40
2022-12-04T04:57:52.420Z,24.60
2022-12-04T05:01:09.113Z,24.75
2022-12-04T05:04:11.199Z,23.75
2022-12-04T05:07:12.748Z,24.85
2022-12-04T05:10:14.292Z,24.83
2022-12-04T05:13:16.838Z,22.80
2022-12-04T05:16:18.970Z,24.52
2022-12-04T05:19:39.372Z,23.83
2022-12-04T05:22:41.043Z,22.67
2022-12-04T05:25:42.652Z,24.08
2022-12-04T05:28:44.247Z,24.67
2022-12-04T05:31:46.002Z,25.33
2022-12-04T05:34:48.822Z,25.33
2022-12-04T05:37:50.420Z,24.30
2022-12-04T05:40:52.011Z,24.42
2022-12-04T05:43:53.553Z,24.55
2022-12-04T05:46:55.173Z,25.38
2022-12-04T05:49:57.169Z,26.20
2022-12-04T05:52:59.054Z,24.40
2022-12-04T05:56:02.904Z,24.33
2022-12-04T05:59:04.440Z,25.17
2022-12-04T06:02:06.093Z,24.33
2022-12-04T06:05:07.915Z,23.73
2022-12-04T06:08:09.591Z,25.45
2022-12-04T06:11:17.782Z,24.92
2022-12-04T06:14:19.380Z,23.80
2022-12-04T06:17:21.275Z,25.27
2022-12-04T06:20:22.822Z,25.00
2022-12-04T06:23:24.412Z,22.02
2022-12-04T06:26:26.379Z,22.02
2022-12-04T06:29:27.919Z,22.63
2022-12-04T06:32:29.466Z,22.50
2022-12-04T06:35:30.992Z,23.00
2022-12-04T06:38:33.476Z,23.83
2022-12-04T06:41:34.995Z,22.17
2022-12-04T06:44:38.692Z,23.55
2022-12-04T06:47:40.258Z,23.35
2022-12-04T06:50:41.818Z,23.15
2022-12-04T06:53:45.781Z,22.40
2022-12-04T06:56:49.134Z,21.40
2022-12-04T06:59:50.720Z,21.63
2022-12-04T07:02:52.642Z,21.00
2022-12-04T07:05:54.344Z,20.75
2022-12-04T07:08:59.983Z,20.52
2022-12-04T07:12:01.703Z,22.25
2022-12-04T07:15:03.398Z,22.63
2022-12-04T07:18:06.506Z,21.40
2022-12-04T07:21:14.252Z,22.08
2022-12-04T07:24:17.175Z,22.67
2022-12-04T07:27:18.714Z,22.17
2022-12-04T07:30:20.398Z,21.65
2022-12-04T07:33:21.905Z,22.80
2022-12-04T07:36:24.271Z,21.90
2022-12-04T07:39:25.823Z,22.02
2022-12-04T07:42:29.983Z,21.83
2022-12-04T07:45:31.538Z,20.67
2022-12-04T07:48:41.308Z,19.88
2022-12-04T07:51:42.831Z,19.48
2022-12-04T07:54:46.958Z,20.98
2022-12-04T07:57:48.518Z,19.70
2022-12-04T08:00:50.258Z,19.70
2022-12-04T08:03:55.074Z,18.95
2022-12-04T08:06:56.617Z,20.23
2022-12-04T08:09:58.361Z,19.48
2022-12-04T08:12:59.961Z,20.42
2022-12-04T08:16:02.850Z,19.48
2022-12-04T08:19:05.362Z,19.35
2022-12-04T08:22:07.213Z,20.55
2022-12-04T08:25:09.145Z,17.92
2022-12-04T08:28:11.786Z,20.05
2022-12-04T08:31:21.943Z,21.13
2022-12-04T08:34:23.611Z,20.38
2022-12-04T08:37:27.409Z,20.05
2022-12-04T08:40:29.040Z,19.63
2022-12-04T08:43:31.050Z,19.92
2022-12-04T08:46:32.834Z,20.98
2022-12-04T08:49:34.488Z,19.75
2022-12-04T08:52:36.166Z,21.52
2022-12-04T08:55:37.736Z,20.67
2022-12-04T08:58:39.681Z,21.60
2022-12-04T09:01:41.300Z,21.13
2022-12-04T09:04:42.910Z,20.85
2022-12-04T09:07:44.527Z,20.67
2022-12-04T09:10:46.151Z,20.50
2022-12-04T09:13:48.067Z,20.35
2022-12-04T09:16:49.593Z,20.33
2022-12-04T09:19:51.158Z,22.02
2022-12-04T09:23:04.120Z,21.02
2022-12-04T09:26:15.913Z,18.80
2022-12-04T09:29:17.411Z,20.42
2022-12-04T09:32:19.253Z,20.52
2022-12-04T09:35:20.767Z,22.13
2022-12-04T09:38:22.580Z,20.52
2022-12-04T09:42:03.639Z,22.17
2022-12-04T09:45:15.676Z,21.80
2022-12-04T09:48:19.567Z,22.30
2022-12-04T09:51:23.046Z,22.02
2022-12-04T09:54:29.723Z,20.17
2022-12-04T09:57:48.019Z,22.92
2022-12-04T10:00:51.858Z,22.63
2022-12-04T10:03:57.797Z,23.25
2022-12-04T10:07:19.839Z,22.83
2022-12-04T10:10:35.093Z,23.63
2022-12-04T10:14:02.831Z,22.88
2022-12-04T10:17:10.376Z,23.55
2022-12-04T10:20:42.821Z,23.95
2022-12-04T10:24:21.504Z,24.42
2022-12-04T10:27:44.662Z,22.55
2022-12-04T10:30:47.820Z,22.77
2022-12-04T10:33:53.813Z,21.45
2022-12-04T10:37:01.347Z,23.92
2022-12-04T10:40:07.638Z,24.23
2022-12-04T10:43:20.721Z,22.90
2022-12-04T10:46:31.181Z,22.48
2022-12-04T10:49:34.860Z,23.85
2022-12-04T10:52:36.481Z,23.63
2022-12-04T10:55:39.733Z,24.63
2022-12-04T10:58:41.668Z,24.73
2022-12-04T11:01:43.447Z,24.25
2022-12-04T11:05:16.519Z,24.92
2022-12-04T11:08:27.008Z,23.52
2022-12-04T11:11:32.114Z,23.55
2022-12-04T11:14:33.683Z,25.27
2022-12-04T11:17:35.283Z,24.42
2022-12-04T11:20:37.019Z,25.63
2022-12-04T11:23:56.957Z,25.13
2022-12-04T11:26:58.763Z,26.10
2022-12-04T11:30:13.783Z,25.85
2022-12-04T11:33:38.042Z,24.60
2022-12-04T11:36:43.450Z,23.40
2022-12-04T11:39:45.774Z,23.95
2022-12-04T11:43:03.392Z,25.25
2022-12-04T11:46:06.785Z,23.77
2022-12-04T11:49:24.470Z,26.73
2022-12-04T11:52:50.523Z,25.63
2022-12-04T11:56:13.628Z,25.50
2022-12-04T11:59:30.181Z,24.20
2022-12-04T12:02:48.744Z,25.90
2022-12-04T12:05:59.317Z,25.33
2022-12-04T12:09:09.152Z,24.75
2022-12-04T12:12:17.395Z,25.03
2022-12-04T12:16:03.182Z,25.10
2022-12-04T12:19:41.360Z,24.08
2022-12-04T12:22:52.060Z,23.35
2022-12-04T12:29:25.012Z,23.67
2022-12-04T12:32:47.842Z,23.60
2022-12-04T12:36:08.101Z,24.95
2022-12-04T12:39:19.964Z,24.67
2022-12-04T12:42:28.417Z,25.50
2022-12-04T12:45:36.347Z,24.08
2022-12-04T12:49:01.820Z,25.55
2022-12-04T12:52:30.988Z,26.60
2022-12-04T12:55:39.407Z,26.75
2022-12-04T12:58:48.379Z,29.17
2022-12-04T13:02:01.131Z,25.70
2022-12-04T13:05:10.225Z,23.90
2022-12-04T13:08:37.745Z,24.50
2022-12-04T13:11:40.273Z,22.98
2022-12-04T13:14:47.396Z,26.42
2022-12-04T13:17:54.389Z,25.80
2022-12-04T13:20:59.734Z,26.25
2022-12-04T13:24:29.080Z,24.10
2022-12-04T13:28:04.492Z,26.30
2022-12-04T13:31:22.089Z,24.02
2022-12-04T13:34:31.336Z,28.33
2022-12-04T13:37:51.388Z,23.08
2022-12-04T13:40:57.754Z,19.65
2022-12-04T13:44:04.138Z,20.60
2022-12-04T13:47:12.868Z,24.23
2022-12-04T13:50:20.650Z,24.30
2022-12-04T13:53:37.674Z,24.98
2022-12-04T13:56:51.644Z,24.13
2022-12-04T14:00:21.675Z,24.60
2022-12-04T14:03:38.451Z,24.77
2022-12-04T14:06:43.264Z,26.00
2022-12-04T14:09:53.098Z,23.13
2022-12-04T14:13:04.802Z,30.10
2022-12-04T14:16:17.260Z,23.42
2022-12-04T14:19:30.479Z,22.30
2022-12-04T14:22:38.139Z,22.10
2022-12-04T14:25:40.237Z,22.15
2022-12-04T14:28:43.718Z,21.20
2022-12-04T14:31:45.456Z,21.58
2022-12-04T14:34:48.204Z,22.65
2022-12-04T14:38:15.618Z,22.23
2022-12-04T14:41:25.830Z,21.25
2022-12-04T14:44:29.894Z,23.88
2022-12-04T14:47:56.707Z,24.65
2022-12-04T14:51:09.595Z,22.40
2022-12-04T14:54:35.829Z,21.40
2022-12-04T14:57:57.838Z,22.23
2022-12-04T15:01:02.182Z,21.17
2022-12-04T15:04:21.035Z,21.08
2022-12-04T15:07:32.155Z,20.38
2022-12-04T15:10:53.656Z,22.17
2022-12-04T15:14:10.791Z,25.23
2022-12-04T15:17:14.196Z,21.13
2022-12-04T15:28:31.001Z,23.90
2022-12-04T15:36:07.108Z,23.20
2022-12-04T15:48:12.208Z,24.63
2022-12-04T15:52:09.566Z,23.77
2022-12-04T15:59:40.253Z,24.80
2022-12-04T16:03:52.974Z,24.85
2022-12-04T16:11:17.566Z,27.50
2022-12-04T16:15:08.995Z,24.48
2022-12-04T16:26:14.059Z,24.42
2022-12-04T16:42:05.541Z,28.73
2022-12-04T16:45:28.107Z,29.35
2022-12-04T16:48:33.461Z,33.60
2022-12-04T16:51:37.339Z,33.58
2022-12-04T16:54:39.936Z,34.15
2022-12-04T16:57:41.459Z,33.45
2022-12-04T17:00:44.628Z,33.15
2022-12-04T17:03:46.169Z,30.48
2022-12-04T17:06:47.875Z,31.08
2022-12-04T17:09:49.424Z,30.33
2022-12-04T17:12:53.983Z,29.10
2022-12-04T17:15:57.193Z,28.25
2022-12-04T17:18:58.740Z,28.58
2022-12-04T17:22:01.419Z,27.33
2022-12-04T17:25:03.688Z,27.92
2022-12-04T17:28:05.495Z,28.38
2022-12-04T17:31:22.085Z,27.65
2022-12-04T17:34:24.136Z,28.02
2022-12-04T17:37:25.695Z,27.92
2022-12-04T17:40:27.303Z,27.20
2022-12-04T17:43:29.856Z,28.17
2022-12-04T17:46:31.590Z,32.17
2022-12-04T17:49:33.233Z,31.65
2022-12-04T17:52:34.874Z,35.53
2022-12-04T17:55:36.552Z,35.08
2022-12-04T17:58:38.602Z,38.13
2022-12-04T18:01:40.315Z,43.42
2022-12-04T18:04:42.271Z,35.47
2022-12-04T18:07:43.934Z,35.00
2022-12-04T18:10:45.539Z,36.20
2022-12-04T18:13:49.025Z,32.75
2022-12-04T18:16:54.157Z,33.65
2022-12-04T18:19:59.786Z,33.85
2022-12-04T18:23:04.365Z,33.83
2022-12-04T18:26:06.393Z,34.33
2022-12-04T18:29:10.590Z,33.08
2022-12-04T18:32:12.244Z,35.97
2022-12-04T18:35:13.925Z,35.40
2022-12-04T18:38:15.452Z,36.45
2022-12-04T18:41:17.008Z,38.63
2022-12-04T18:44:21.362Z,40.38
2022-12-04T18:47:23.101Z,39.08
2022-12-04T18:50:24.637Z,39.50
2022-12-04T18:53:26.297Z,41.40
2022-12-04T18:56:28.683Z,42.95
2022-12-04T18:59:30.290Z,45.50
2022-12-04T19:02:31.872Z,42.75
2022-12-04T19:05:33.474Z,46.95
2022-12-04T19:08:38.750Z,44.13
2022-12-04T19:11:44.420Z,46.78
2022-12-04T19:14:45.985Z,45.40
2022-12-04T19:17:51.024Z,44.65
2022-12-04T19:20:52.593Z,44.78
2022-12-04T19:23:58.982Z,41.30
2022-12-04T19:27:03.815Z,41.90
2022-12-04T19:30:08.884Z,44.47
2022-12-04T19:33:10.462Z,42.63
2022-12-04T19:36:13.454Z,42.20
2022-12-04T19:39:15.000Z,40.38
2022-12-04T19:42:19.347Z,44.50
2022-12-04T19:45:20.928Z,43.92
2022-12-04T19:48:24.849Z,43.17
2022-12-04T19:51:26.419Z,40.85
2022-12-04T19:54:29.843Z,43.03
2022-12-04T19:57:31.408Z,45.33
2022-12-04T20:00:33.695Z,45.22
2022-12-04T20:03:35.848Z,45.55
2022-12-04T20:06:42.368Z,44.03
2022-12-04T20:09:52.145Z,46.47
2022-12-04T20:12:54.268Z,46.20
2022-12-04T20:15:58.900Z,49.63
2022-12-04T20:19:02.350Z,44.92
2022-12-04T20:22:03.887Z,45.88
2022-12-04T20:25:05.578Z,44.00
2022-12-04T20:28:10.199Z,43.42
2022-12-04T20:31:18.970Z,44.65
2022-12-04T20:34:20.726Z,45.08
2022-12-04T20:37:22.256Z,44.38
2022-12-04T20:40:26.064Z,41.92
2022-12-04T20:43:27.603Z,40.47
2022-12-04T20:46:39.880Z,39.92
2022-12-04T20:49:41.568Z,40.03
2022-12-04T20:52:43.109Z,39.78
2022-12-04T20:55:55.307Z,40.22
2022-12-04T20:58:58.183Z,38.10
2022-12-04T21:02:00.227Z,39.53
2022-12-04T21:05:04.323Z,40.35
2022-12-04T21:08:09.850Z,40.05
2022-12-04T21:11:11.450Z,38.42
2022-12-04T21:14:37.745Z,37.33
2022-12-04T21:17:40.127Z,37.83
2022-12-04T21:20:41.693Z,38.20
2022-12-04T21:23:45.504Z,39.08
2022-12-04T21:26:49.787Z,38.75
2022-12-04T21:29:51.371Z,37.72
2022-12-04T21:32:53.148Z,37.10
2022-12-04T21:35:54.959Z,37.45
2022-12-04T21:38:56.982Z,35.58
2022-12-04T21:42:20.374Z,36.33
2022-12-04T21:45:24.968Z,42.55
2022-12-04T21:48:28.915Z,37.05
2022-12-04T21:51:56.308Z,36.15
2022-12-04T21:54:53.634Z,36.92
2022-12-04T21:57:55.177Z,36.80
2022-12-04T22:00:59.596Z,37.03
2022-12-04T22:04:01.188Z,38.05
2022-12-04T22:07:02.768Z,39.10
2022-12-04T22:10:10.401Z,39.20
2022-12-04T22:13:13.350Z,38.65
2022-12-04T22:16:17.084Z,39.10
2022-12-04T22:19:20.419Z,41.10
2022-12-04T22:22:21.952Z,39.95
2022-12-04T22:25:23.566Z,41.17
2022-12-04T22:28:32.180Z,39.25
2022-12-04T22:31:37.711Z,39.67
2022-12-04T22:34:39.419Z,39.15
2022-12-04T22:37:44.287Z,40.25
2022-12-04T22:40:46.155Z,39.22
2022-12-04T22:43:48.093Z,38.75
2022-12-04T22:46:49.745Z,39.40
2022-12-04T22:49:51.411Z,39.10
2022-12-04T22:52:53.238Z,39.60
2022-12-04T22:55:54.888Z,37.90
2022-12-04T22:58:58.170Z,38.90
2022-12-04T23:02:02.560Z,40.03
2022-12-04T23:05:04.714Z,37.58
2022-12-04T23:08:06.649Z,39.13
2022-12-04T23:11:19.893Z,38.72
2022-12-04T23:14:22.765Z,38.30
2022-12-04T23:17:24.386Z,39.63
2022-12-04T23:20:25.906Z,38.22
2022-12-04T23:23:27.684Z,40.08
2022-12-04T23:26:35.901Z,38.75
2022-12-04T23:29:52.876Z,37.88
2022-12-04T23:32:54.953Z,39.08
2022-12-04T23:35:58.658Z,38.95
2022-12-04T23:39:00.481Z,36.70
2022-12-04T23:42:02.051Z,38.60
2022-12-04T23:45:04.543Z,38.10
2022-12-04T23:48:06.270Z,38.28
2022-12-04T23:51:09.070Z,38.15
2022-12-04T23:54:11.139Z,38.95
2022-12-04T23:57:12.690Z,39.25
